createdAt,value
2023-08-12T04:42:19.168Z,18.60
2023-08-12T04:45:21.671Z,19.16
2023-08-12T04:48:24.202Z,19.74
2023-08-12T04:51:26.764Z,20.30
2023-08-12T04:54:29.292Z,21.01
2023-08-12T05:33:30.878Z,23.24
2023-08-12T05:34:21.068Z,24.00
2023-08-12T05:37:23.582Z,23.87
2023-08-12T05:40:26.176Z,23.99
2023-08-12T05:43:28.931Z,24.02
2023-08-12T05:46:31.731Z,22.69
2023-08-12T05:49:35.579Z,21.87
2023-08-12T05:52:38.209Z,21.42
2023-08-12T05:55:40.778Z,21.35
2023-08-12T05:58:43.391Z,21.35
2023-08-12T06:01:45.981Z,21.25
2023-08-12T06:04:50.049Z,21.25
2023-08-12T06:07:52.659Z,21.13
2023-08-12T06:10:56.280Z,20.98
2023-08-12T06:13:58.863Z,20.93
2023-08-12T06:17:01.779Z,20.82
2023-08-12T06:20:06.522Z,20.77
2023-08-12T06:23:09.017Z,20.70
2023-08-12T06:26:11.647Z,20.61
2023-08-12T06:29:14.157Z,20.68
2023-08-12T06:32:16.672Z,20.78
2023-08-12T06:35:21.513Z,21.52
2023-08-12T06:38:24.017Z,21.77
2023-08-12T06:41:26.553Z,22.22
2023-08-12T06:44:29.184Z,22.69
2023-08-12T06:47:31.902Z,22.86
2023-08-12T06:50:36.026Z,23.42
2023-08-12T06:53:39.163Z,24.05
2023-08-12T06:56:41.758Z,24.68
2023-08-12T06:59:45.809Z,24.91
2023-08-12T07:02:48.379Z,24.30
2023-08-12T07:05:52.488Z,23.82
2023-08-12T07:08:55.591Z,23.41
2023-08-12T07:11:58.458Z,23.42
2023-08-12T07:15:01.053Z,23.04
2023-08-12T07:18:06.518Z,22.81
2023-08-12T07:21:10.766Z,22.74
2023-08-12T07:24:13.666Z,23.04
2023-08-12T07:27:16.222Z,23.51
2023-08-12T07:30:18.970Z,24.20
2023-08-12T07:33:21.920Z,25.18
2023-08-12T07:36:25.998Z,26.05
2023-08-12T07:39:28.568Z,25.87
2023-08-12T07:42:31.070Z,25.14
2023-08-12T07:45:33.696Z,25.08
2023-08-12T07:48:36.267Z,25.80
2023-08-12T07:51:40.077Z,26.91
2023-08-12T07:54:42.599Z,26.32
2023-08-12T07:57:46.544Z,25.71
2023-08-12T08:00:49.104Z,25.88
2023-08-12T08:03:51.873Z,26.70
2023-08-12T08:06:56.354Z,27.46
2023-08-12T08:09:58.857Z,27.21
2023-08-12T08:13:01.417Z,28.03
2023-08-12T08:16:04.106Z,27.60
2023-08-12T08:19:06.859Z,27.38
2023-08-12T08:22:13.901Z,27.75
2023-08-12T08:25:16.917Z,27.83
2023-08-12T08:28:19.595Z,27.53
2023-08-12T08:31:22.107Z,27.29
2023-08-12T08:34:24.700Z,26.89
2023-08-12T08:37:28.532Z,26.59
2023-08-12T08:40:31.120Z,26.02
2023-08-12T08:43:37.259Z,25.58
2023-08-12T08:46:39.893Z,25.55
2023-08-12T08:49:43.869Z,25.50
2023-08-12T08:52:48.313Z,25.22
2023-08-12T08:55:51.438Z,25.06
2023-08-12T08:58:54.723Z,25.08
2023-08-12T09:01:59.992Z,24.95
2023-08-12T09:05:04.003Z,24.73
2023-08-12T09:08:12.036Z,24.55
2023-08-12T09:11:16.470Z,24.37
2023-08-12T09:14:19.765Z,24.35
2023-08-12T09:17:22.302Z,24.33
2023-08-12T09:20:25.110Z,24.32
2023-08-12T09:23:29.518Z,24.32
2023-08-12T09:26:32.121Z,24.42
2023-08-12T09:29:36.879Z,24.49
2023-08-12T09:32:39.756Z,24.81
2023-08-12T09:35:45.845Z,24.99
2023-08-12T09:38:49.840Z,24.91
2023-08-12T09:41:53.406Z,24.78
2023-08-12T09:44:55.906Z,24.69
2023-08-12T09:47:59.820Z,24.59
2023-08-12T09:51:02.778Z,24.71
2023-08-12T09:54:06.820Z,24.77
2023-08-12T09:57:10.363Z,24.65
2023-08-12T10:00:17.914Z,24.88
2023-08-12T10:03:22.468Z,25.16
2023-08-12T10:06:25.478Z,25.64
2023-08-12T10:09:29.352Z,25.78
2023-08-12T10:12:31.963Z,26.22
2023-08-12T10:15:34.775Z,26.23
2023-08-12T10:18:38.987Z,25.96
2023-08-12T10:21:41.963Z,25.81
2023-08-12T10:24:47.799Z,25.79
2023-08-12T10:27:50.977Z,25.95
2023-08-12T10:30:54.044Z,25.88
2023-08-12T10:33:56.854Z,25.84
2023-08-12T10:37:04.339Z,25.71
2023-08-12T10:40:24.470Z,25.63
2023-08-12T10:43:28.302Z,25.52
2023-08-12T10:46:33.426Z,25.47
2023-08-12T10:49:40.566Z,25.44
2023-08-12T10:52:45.503Z,25.41
2023-08-12T10:55:50.664Z,25.44
2023-08-12T10:58:53.217Z,25.44
2023-08-12T11:01:55.862Z,25.41
2023-08-12T11:05:00.070Z,25.31
2023-08-12T11:08:04.745Z,25.29
2023-08-12T11:11:21.473Z,25.40
2023-08-12T11:14:25.932Z,25.47
2023-08-12T11:17:36.713Z,25.78
2023-08-12T11:20:40.056Z,25.86
2023-08-12T11:23:42.678Z,26.18
2023-08-12T11:26:48.096Z,26.47
2023-08-12T11:29:51.446Z,26.69
2023-08-12T11:32:55.756Z,26.44
2023-08-12T11:35:58.861Z,26.09
2023-08-12T11:39:01.403Z,25.92
2023-08-12T11:42:06.021Z,25.85
2023-08-12T11:45:09.829Z,25.83
2023-08-12T11:48:12.421Z,25.76
2023-08-12T11:51:15.986Z,25.86
2023-08-12T11:54:19.483Z,25.78
2023-08-12T11:57:24.560Z,25.89
2023-08-12T12:00:27.401Z,26.00
2023-08-12T12:03:30.439Z,26.08
2023-08-12T12:06:33.873Z,26.11
2023-08-12T12:09:36.441Z,26.14
2023-08-12T12:12:40.328Z,26.06
2023-08-12T12:15:43.981Z,26.21
2023-08-12T12:18:46.560Z,26.18
2023-08-12T12:21:50.704Z,26.19
2023-08-12T12:24:53.318Z,26.25
2023-08-12T12:27:57.181Z,26.26
2023-08-12T12:30:59.780Z,26.34
2023-08-12T12:34:02.496Z,26.15
2023-08-12T12:37:05.187Z,26.07
2023-08-12T12:40:09.236Z,25.92
2023-08-12T12:43:13.076Z,25.81
2023-08-12T12:46:16.881Z,25.72
2023-08-12T12:49:19.435Z,25.68
2023-08-12T12:52:21.992Z,25.65
2023-08-12T12:55:24.536Z,25.51
2023-08-12T12:58:28.441Z,25.45
2023-08-12T13:01:31.035Z,25.38
2023-08-12T13:04:33.685Z,25.34
2023-08-12T13:07:36.302Z,25.17
2023-08-12T13:10:39.057Z,25.00
2023-08-12T13:13:43.018Z,24.79
2023-08-12T13:16:45.861Z,24.60
2023-08-12T13:19:49.071Z,24.55
2023-08-12T13:22:51.613Z,24.39
2023-08-12T13:25:54.210Z,24.12
2023-08-12T13:28:58.070Z,24.06
2023-08-12T13:32:00.622Z,23.94
2023-08-12T13:35:03.353Z,23.81
2023-08-12T13:38:06.184Z,23.70
2023-08-12T13:41:08.797Z,23.77
2023-08-12T13:44:12.648Z,23.95
2023-08-12T13:47:15.370Z,23.91
2023-08-12T13:50:18.232Z,23.63
2023-08-12T13:53:20.874Z,23.44
2023-08-12T13:56:23.497Z,23.51
2023-08-12T13:59:27.396Z,23.72
2023-08-12T14:02:30.852Z,24.04
2023-08-12T14:05:33.432Z,24.61
2023-08-12T14:08:35.975Z,25.32
2023-08-12T14:11:38.544Z,25.50
2023-08-12T14:14:42.392Z,25.58
2023-08-12T14:17:44.922Z,25.67
2023-08-12T14:20:47.445Z,25.85
2023-08-12T14:23:50.002Z,25.85
2023-08-12T14:26:52.558Z,25.69
2023-08-12T14:29:56.474Z,25.46
2023-08-12T14:33:00.106Z,25.57
2023-08-12T14:36:02.655Z,25.70
2023-08-12T14:39:05.201Z,25.64
2023-08-12T14:42:09.709Z,25.73
2023-08-12T14:45:14.007Z,26.05
2023-08-12T14:48:18.045Z,26.16
2023-08-12T14:51:20.581Z,26.08
2023-08-12T14:54:23.295Z,26.09
2023-08-12T14:57:25.940Z,26.02
2023-08-12T15:00:30.406Z,26.04
2023-08-12T15:03:33.218Z,26.08
2023-08-12T15:06:35.894Z,26.15
2023-08-12T15:09:38.669Z,26.45
2023-08-12T15:12:41.228Z,26.63
2023-08-12T15:15:48.736Z,26.68
2023-08-12T15:18:51.300Z,26.59
2023-08-12T15:21:53.887Z,26.42
2023-08-12T15:24:56.621Z,26.33
2023-08-12T15:27:59.574Z,26.37
2023-08-12T15:31:03.665Z,26.38
2023-08-12T15:34:06.292Z,26.46
2023-08-12T15:37:08.801Z,26.59
2023-08-12T15:40:14.283Z,26.68
2023-08-12T15:43:16.795Z,26.75
2023-08-12T15:46:20.641Z,26.69
2023-08-12T15:49:23.889Z,26.79
2023-08-12T15:52:27.504Z,27.10
2023-08-12T15:55:30.052Z,27.29
2023-08-12T15:58:32.729Z,27.39
2023-08-12T16:01:37.537Z,27.58
2023-08-12T16:04:40.191Z,27.70
2023-08-12T16:07:42.717Z,27.81
2023-08-12T16:10:45.472Z,27.75
2023-08-12T16:13:47.964Z,27.64
2023-08-12T16:16:52.227Z,27.77
2023-08-12T16:19:55.073Z,27.59
2023-08-12T16:22:57.650Z,27.74
2023-08-12T16:26:00.456Z,27.85
2023-08-12T16:29:03.424Z,27.72
2023-08-12T16:32:09.830Z,27.50
2023-08-12T16:35:12.477Z,27.34
2023-08-12T16:38:15.170Z,27.37
2023-08-12T16:41:18.621Z,27.18
2023-08-12T16:44:21.339Z,26.99
2023-08-12T16:47:25.603Z,26.76
2023-08-12T16:50:28.190Z,26.61
2023-08-12T16:53:30.871Z,26.39
2023-08-12T16:56:33.370Z,26.25
2023-08-12T16:59:35.961Z,26.17
2023-08-12T17:02:39.969Z,26.05
2023-08-12T17:05:42.497Z,25.99
2023-08-12T17:08:45.103Z,25.94
2023-08-12T17:11:47.765Z,25.85
2023-08-12T17:14:50.372Z,25.77
2023-08-12T17:17:54.994Z,25.66
2023-08-12T17:20:57.599Z,25.52
2023-08-12T17:24:00.187Z,25.36
2023-08-12T17:27:02.922Z,25.23
2023-08-12T17:30:06.675Z,25.16
